Aérodrome :
LOGIN :

S'inscrire | Disclaimer

   EN    FR    IT 

 










Légende :    VFR   VFR Marginal   IFR   IFR Intensif   IFR Très Intensif
Visi : 
Plafond : 
>= 8 km
>= 3000ft
5 à 8 km
1000 à 3000 ft
1500m à 5 km
500 à 1000 ft
800 à 1500m
200 à 500 ft
< 800m
< 200 ft
Symboles :   Orages  Brouillard  Fortes neiges  Fortes précipitations  Vent > 20 kt
SIGMETs :   Divers  Orages  Givrage  Turbulence  Onde Orograph.  Cendres Volcan.






- Altitude de l'aérodrome : 297 ft
- Code IATA : UIP


LFRQ - Quimper Pluguffan

DERNIER METAR :
  • 141530Z AUTO 32011KT 280V350 9999 FEW046 15/08 Q1024 NOSIG

METARs EXPIRÉS :
  • 141500Z AUTO 31010KT 290V350 CAVOK 16/07 Q1024 NOSIG
  • 141430Z AUTO 34007KT 300V020 CAVOK 16/09 Q1024 NOSIG
  • 141400Z AUTO 32007KT 290V010 CAVOK 16/09 Q1024 NOSIG
  • 141330Z AUTO 31005KT 180V350 CAVOK 16/09 Q1024 NOSIG
  • 141300Z AUTO 32005KT 260V030 CAVOK 17/08 Q1025 NOSIG
  • 141230Z AUTO 33005KT 290V020 CAVOK 17/09 Q1025 NOSIG
  • 141200Z AUTO VRB03KT 9999 FEW030 16/08 Q1025 NOSIG
  • 141130Z AUTO VRB02KT 9999 FEW026 16/09 Q1025 NOSIG
  • 141100Z AUTO 33005KT 300V050 9999 FEW023 15/08 Q1026 NOSIG

TAF TAF LFRQ
Valide du 14 à 12h jusqu'au 15 à 12h UTC


141100Z 1412/1512 VRB05KT 9999 SCT025
BECMG 1414/1416 33010KT
BECMG 1420/1422 VRB05KT
BECMG 1502/1504 26010KT
BECMG 1504/1506 26015G25KT
BECMG 1506/1509 26020G30KT
PROB40
TEMPO 1508/1512 4000 RADZ BKN012



MET'MAP, la Météo Aéronautique d'un coup d'oeil ! - Copyright ORBIFLY Décembre 2007 - Disclaimer

ORBIFLY MET'MAP TEAM :

Programmation & Développement : Alexandra Zaïnal
Sur une idée originale de : Baudouin d'Aumeries
Soutien technique & logistique : Manuel Goepfert
Assistance : Marc-Olivier Méhu




SOURCES & CREDITS :

   NOAA